createdAt,value
2022-07-28T00:00:48.344Z,100.00
2022-07-28T00:03:14.953Z,100.00
2022-07-28T00:05:41.668Z,100.00
2022-07-28T00:08:10.173Z,100.00
2022-07-28T00:10:36.814Z,100.00
2022-07-28T00:13:03.942Z,100.00
2022-07-28T00:15:34.173Z,100.00
2022-07-28T00:18:01.088Z,100.00
2022-07-28T00:20:28.105Z,100.00
2022-07-28T00:22:54.682Z,100.00
2022-07-28T00:25:21.249Z,100.00
2022-07-28T00:27:48.444Z,100.00
2022-07-28T00:30:15.007Z,100.00
2022-07-28T00:32:41.791Z,100.00
2022-07-28T00:35:08.938Z,100.00
2022-07-28T00:37:35.751Z,100.00
2022-07-28T00:40:07.795Z,100.00
2022-07-28T00:42:34.319Z,100.00
2022-07-28T00:45:01.178Z,100.00
2022-07-28T00:47:27.765Z,100.00
2022-07-28T00:50:00.889Z,100.00
2022-07-28T00:52:27.456Z,100.00
2022-07-28T00:54:54.107Z,100.00
2022-07-28T00:57:21.862Z,100.00
2022-07-28T00:59:48.421Z,100.00
2022-07-28T01:02:15.251Z,100.00
2022-07-28T01:04:42.032Z,100.00
2022-07-28T01:07:32.859Z,100.00
2022-07-28T01:10:07.084Z,100.00
2022-07-28T01:13:01.562Z,100.00
2022-07-28T01:15:36.599Z,100.00
2022-07-28T01:18:25.477Z,100.00
2022-07-28T01:21:29.205Z,100.00
2022-07-28T01:24:24.139Z,100.00
2022-07-28T01:27:00.683Z,100.00
2022-07-28T01:29:55.385Z,100.00
2022-07-28T01:32:28.655Z,100.00
2022-07-28T01:35:09.347Z,100.00
2022-07-28T01:37:41.750Z,100.00
2022-07-28T01:40:09.720Z,100.00
2022-07-28T01:42:43.563Z,100.00
2022-07-28T01:45:11.642Z,100.00
2022-07-28T01:47:40.014Z,100.00
2022-07-28T01:50:08.612Z,100.00
2022-07-28T01:52:35.843Z,100.00
2022-07-28T01:55:02.554Z,100.00
2022-07-28T01:57:31.052Z,100.00
2022-07-28T01:59:59.427Z,100.00
2022-07-28T02:02:27.403Z,100.00
2022-07-28T02:04:56.274Z,100.00
2022-07-28T02:07:23.317Z,100.00
2022-07-28T02:09:49.911Z,100.00
2022-07-28T02:12:18.231Z,100.00
2022-07-28T02:14:47.320Z,100.00
2022-07-28T02:17:17.937Z,100.00
2022-07-28T02:19:46.437Z,100.00
2022-07-28T02:22:14.127Z,100.00
2022-07-28T02:24:41.179Z,100.00
2022-07-28T02:27:22.655Z,100.00
2022-07-28T02:29:51.505Z,100.00
2022-07-28T02:32:28.669Z,100.00
2022-07-28T02:35:16.261Z,100.00
2022-07-28T02:37:47.496Z,100.00
2022-07-28T02:40:15.488Z,100.00
2022-07-28T02:42:45.730Z,100.00
2022-07-28T02:45:13.167Z,100.00
2022-07-28T02:47:49.074Z,100.00
2022-07-28T02:50:16.991Z,100.00
2022-07-28T02:52:45.324Z,100.00
2022-07-28T02:55:14.169Z,100.00
2022-07-28T02:57:41.523Z,100.00
2022-07-28T03:00:08.881Z,100.00
2022-07-28T03:02:36.789Z,100.00
2022-07-28T03:05:07.610Z,100.00
2022-07-28T03:07:43.772Z,100.00
2022-07-28T03:10:33.334Z,100.00
2022-07-28T03:13:02.409Z,100.00
2022-07-28T03:15:29.082Z,100.00
2022-07-28T03:17:55.638Z,100.00
2022-07-28T03:20:22.246Z,100.00
2022-07-28T03:22:48.884Z,100.00
2022-07-28T03:25:28.734Z,100.00
2022-07-28T03:27:56.244Z,100.00
2022-07-28T03:30:28.905Z,100.00
2022-07-28T03:32:57.643Z,100.00
2022-07-28T03:35:24.515Z,100.00
2022-07-28T03:37:55.428Z,100.00
2022-07-28T03:40:25.958Z,100.00
2022-07-28T03:42:53.972Z,100.00
2022-07-28T03:45:20.691Z,100.00
2022-07-28T03:47:55.171Z,100.00
2022-07-28T03:50:25.841Z,100.00
2022-07-28T03:52:52.729Z,100.00
2022-07-28T03:55:19.344Z,100.00
2022-07-28T03:57:46.034Z,100.00
2022-07-28T04:00:14.714Z,100.00
2022-07-28T04:02:44.246Z,100.00
2022-07-28T04:05:15.574Z,100.00
2022-07-28T04:07:42.744Z,100.00
2022-07-28T04:10:12.508Z,100.00
2022-07-28T04:12:50.306Z,100.00
2022-07-28T04:15:17.519Z,100.00
2022-07-28T04:17:44.454Z,100.00
2022-07-28T04:20:11.929Z,100.00
2022-07-28T04:22:38.526Z,100.00
2022-07-28T04:25:06.144Z,100.00
2022-07-28T04:27:35.115Z,100.00
2022-07-28T04:30:03.545Z,100.00
2022-07-28T04:32:30.122Z,100.00
2022-07-28T04:34:56.862Z,100.00
2022-07-28T04:37:23.427Z,100.00
2022-07-28T04:39:51.064Z,100.00
2022-07-28T04:42:21.027Z,100.00
2022-07-28T04:44:47.598Z,100.00
2022-07-28T04:47:14.340Z,100.00
2022-07-28T04:49:41.337Z,100.00
2022-07-28T04:52:10.791Z,100.00
2022-07-28T04:54:38.079Z,100.00
2022-07-28T04:57:10.423Z,100.00
2022-07-28T04:59:39.368Z,100.00
2022-07-28T05:02:06.705Z,100.00
2022-07-28T05:04:33.460Z,100.00
2022-07-28T05:07:02.141Z,100.00
2022-07-28T05:09:38.328Z,100.00
2022-07-28T05:12:05.839Z,100.00
2022-07-28T05:14:32.719Z,100.00
2022-07-28T05:16:59.363Z,100.00
2022-07-28T05:19:26.068Z,100.00
2022-07-28T05:21:52.661Z,100.00
2022-07-28T05:24:19.349Z,100.00
2022-07-28T05:26:45.878Z,100.00
2022-07-28T05:29:12.485Z,100.00
2022-07-28T05:31:39.335Z,100.00
2022-07-28T05:34:06.204Z,100.00
2022-07-28T05:36:32.816Z,100.00
2022-07-28T05:38:59.418Z,100.00
2022-07-28T05:41:26.012Z,100.00
2022-07-28T05:43:52.567Z,100.00
2022-07-28T05:46:20.842Z,100.00
2022-07-28T05:48:47.602Z,100.00
2022-07-28T05:51:14.220Z,100.00
2022-07-28T05:53:40.790Z,100.00
2022-07-28T05:56:07.327Z,100.00
2022-07-28T05:58:33.872Z,100.00
2022-07-28T06:01:01.871Z,100.00
2022-07-28T06:03:31.836Z,100.00
2022-07-28T06:06:14.324Z,100.00
2022-07-28T06:08:43.015Z,100.00
2022-07-28T06:11:09.863Z,100.00
2022-07-28T06:13:36.531Z,100.00
2022-07-28T06:16:12.990Z,100.00
2022-07-28T06:18:40.065Z,100.00
2022-07-28T06:21:06.644Z,100.00
2022-07-28T06:23:33.216Z,100.00
2022-07-28T06:26:00.454Z,100.00
2022-07-28T06:28:26.995Z,100.00
2022-07-28T06:30:53.547Z,100.00
2022-07-28T06:33:20.096Z,100.00
2022-07-28T06:35:51.117Z,100.00
2022-07-28T06:38:20.395Z,100.00
2022-07-28T06:40:47.613Z,100.00
2022-07-28T06:43:14.807Z,100.00
2022-07-28T06:45:41.550Z,100.00
2022-07-28T06:48:08.814Z,100.00
2022-07-28T06:50:36.444Z,100.00
2022-07-28T06:53:03.036Z,100.00
2022-07-28T06:55:34.541Z,100.00
2022-07-28T06:58:06.052Z,100.00
2022-07-28T07:00:33.073Z,100.00
2022-07-28T07:03:00.777Z,100.00
2022-07-28T07:05:29.983Z,100.00
2022-07-28T07:07:56.620Z,100.00
2022-07-28T07:10:23.354Z,100.00
2022-07-28T07:12:49.915Z,100.00
2022-07-28T07:15:16.509Z,100.00
2022-07-28T07:17:43.046Z,100.00
2022-07-28T07:20:10.098Z,100.00
2022-07-28T07:22:42.794Z,100.00
2022-07-28T07:25:17.324Z,100.00
2022-07-28T07:27:44.629Z,100.00
2022-07-28T07:30:11.965Z,100.00
2022-07-28T07:32:38.992Z,100.00
2022-07-28T07:35:06.366Z,100.00
2022-07-28T07:37:32.908Z,100.00
2022-07-28T07:40:03.682Z,100.00
2022-07-28T07:42:30.288Z,100.00
2022-07-28T07:44:56.851Z,100.00
2022-07-28T07:47:23.492Z,100.00
2022-07-28T07:49:50.084Z,100.00
2022-07-28T07:52:16.605Z,100.00
2022-07-28T07:54:43.486Z,100.00
2022-07-28T07:57:10.270Z,100.00
2022-07-28T07:59:36.918Z,100.00
2022-07-28T08:02:03.528Z,100.00
2022-07-28T08:04:30.263Z,100.00
2022-07-28T08:06:56.872Z,100.00
2022-07-28T08:09:23.534Z,100.00
2022-07-28T08:11:50.078Z,100.00
2022-07-28T08:14:17.463Z,100.00
2022-07-28T08:16:44.597Z,98.62
2022-07-28T08:19:11.742Z,98.01
2022-07-28T08:21:38.682Z,74.01
2022-07-28T08:24:05.745Z,74.37
2022-07-28T08:26:32.291Z,69.55
2022-07-28T08:28:58.882Z,69.75
2022-07-28T08:31:25.982Z,69.23
2022-07-28T08:33:54.359Z,70.02
2022-07-28T08:36:22.249Z,67.12
2022-07-28T08:38:48.840Z,65.96
2022-07-28T08:41:33.561Z,69.16
2022-07-28T08:44:03.408Z,67.78
2022-07-28T08:46:35.423Z,66.83
2022-07-28T08:49:05.474Z,66.19
2022-07-28T08:51:32.149Z,64.38
2022-07-28T08:53:59.000Z,61.20
2022-07-28T08:56:25.677Z,59.83
2022-07-28T08:58:52.416Z,59.28
2022-07-28T09:01:19.030Z,58.93
2022-07-28T09:03:45.958Z,60.66
2022-07-28T09:06:12.506Z,58.25
2022-07-28T09:08:39.032Z,54.23
2022-07-28T09:11:08.110Z,54.20
2022-07-28T09:13:35.842Z,54.09
2022-07-28T09:16:02.556Z,53.00
2022-07-28T09:18:29.144Z,55.03
2022-07-28T09:20:55.815Z,55.40
2022-07-28T09:23:42.469Z,52.68
2022-07-28T09:26:12.021Z,55.65
2022-07-28T09:28:57.416Z,51.44
2022-07-28T09:31:26.177Z,51.43
2022-07-28T09:34:01.162Z,53.36
2022-07-28T09:36:38.780Z,52.66
2022-07-28T09:39:05.383Z,48.31
2022-07-28T09:41:49.049Z,47.81
2022-07-28T09:44:19.881Z,49.85
2022-07-28T09:46:46.624Z,49.64
2022-07-28T09:49:13.455Z,46.62
2022-07-28T09:51:40.203Z,49.14
2022-07-28T09:54:14.724Z,47.59
2022-07-28T09:56:45.449Z,45.48
2022-07-28T09:59:14.608Z,45.96
2022-07-28T10:01:54.294Z,44.72
2022-07-28T10:04:41.525Z,40.28
2022-07-28T10:07:19.707Z,41.10
2022-07-28T10:10:07.128Z,39.46
2022-07-28T10:12:35.449Z,38.55
2022-07-28T10:15:31.980Z,33.92
2022-07-28T10:17:58.596Z,35.60
2022-07-28T10:20:26.998Z,32.68
2022-07-28T10:23:05.406Z,32.57
2022-07-28T10:25:33.820Z,32.27
2022-07-28T10:28:02.463Z,30.26
2022-07-28T10:30:31.570Z,29.15
2022-07-28T10:32:59.738Z,30.70
2022-07-28T10:35:27.029Z,27.82
2022-07-28T10:38:00.477Z,26.81
2022-07-28T10:40:29.849Z,26.86
2022-07-28T10:42:56.830Z,25.89
2022-07-28T10:45:32.598Z,25.97
2022-07-28T10:48:09.191Z,26.60
2022-07-28T10:50:39.168Z,27.00
2022-07-28T10:53:09.603Z,25.32
2022-07-28T10:56:08.627Z,23.21
2022-07-28T10:58:50.114Z,25.99
2022-07-28T11:01:52.540Z,23.69
2022-07-28T11:04:40.915Z,21.51
2022-07-28T11:07:12.266Z,22.35
2022-07-28T11:09:39.466Z,22.92
2022-07-28T11:12:06.406Z,22.02
2022-07-28T11:14:39.448Z,21.13
2022-07-28T11:17:10.123Z,20.28
2022-07-28T11:20:06.772Z,21.72
2022-07-28T11:22:30.440Z,21.56
2022-07-28T11:25:18.837Z,20.10
2022-07-28T11:27:50.006Z,21.32
2022-07-28T11:30:19.659Z,20.36
2022-07-28T11:32:53.444Z,19.67
2022-07-28T11:35:30.306Z,18.71
2022-07-28T11:38:02.894Z,20.09
2022-07-28T11:40:36.678Z,19.32
2022-07-28T11:43:36.552Z,20.96
2022-07-28T11:46:04.875Z,19.27
2022-07-28T11:48:37.177Z,17.24
2022-07-28T11:51:03.694Z,16.37
2022-07-28T11:53:53.134Z,16.95
2022-07-28T11:56:29.121Z,16.96
2022-07-28T11:59:01.047Z,16.99
2022-07-28T12:01:27.720Z,17.29
2022-07-28T12:04:01.563Z,17.87
2022-07-28T12:06:36.044Z,18.55
2022-07-28T12:09:07.582Z,16.21
2022-07-28T12:11:35.833Z,16.37
2022-07-28T12:14:14.482Z,16.15
2022-07-28T12:16:43.712Z,16.25
2022-07-28T12:19:11.300Z,15.89
2022-07-28T12:21:47.832Z,15.42
2022-07-28T12:24:15.822Z,14.19
2022-07-28T12:26:43.714Z,16.76
2022-07-28T12:29:15.063Z,16.80
2022-07-28T12:32:02.498Z,15.98
2022-07-28T12:34:30.742Z,16.61
2022-07-28T12:37:02.070Z,18.68
2022-07-28T12:39:42.304Z,18.44
2022-07-28T12:42:10.734Z,18.34
2022-07-28T12:44:38.006Z,16.81
2022-07-28T12:47:07.858Z,17.58
2022-07-28T12:49:37.410Z,16.75
2022-07-28T12:52:23.781Z,17.55
2022-07-28T12:54:56.112Z,21.73
2022-07-28T12:57:48.797Z,21.26
2022-07-28T13:00:19.694Z,20.88
2022-07-28T13:02:47.450Z,21.21
2022-07-28T13:05:54.724Z,20.87
2022-07-28T13:08:25.208Z,20.60
2022-07-28T13:10:57.392Z,18.36
2022-07-28T13:13:25.897Z,18.12
2022-07-28T13:16:18.220Z,17.64
2022-07-28T13:18:51.399Z,16.05
2022-07-28T13:21:56.151Z,16.57
2022-07-28T13:24:26.657Z,19.97
2022-07-28T13:26:53.243Z,22.24
2022-07-28T13:29:19.838Z,22.04
2022-07-28T13:31:46.537Z,22.46
2022-07-28T13:34:13.793Z,22.17
2022-07-28T13:36:40.538Z,23.17
2022-07-28T13:39:07.880Z,22.96
2022-07-28T13:41:48.697Z,24.55
2022-07-28T13:44:21.394Z,24.00
2022-07-28T13:46:49.895Z,24.47
2022-07-28T13:49:16.974Z,25.25
2022-07-28T13:51:43.634Z,26.88
2022-07-28T13:54:11.006Z,26.17
2022-07-28T13:56:37.603Z,25.94
2022-07-28T13:59:04.171Z,27.23
2022-07-28T14:01:35.960Z,26.51
2022-07-28T14:04:04.452Z,26.51
2022-07-28T14:06:31.015Z,25.27
2022-07-28T14:08:57.781Z,24.42
2022-07-28T14:11:24.357Z,24.99
2022-07-28T14:13:53.790Z,26.25
2022-07-28T14:16:21.185Z,26.20
2022-07-28T14:18:48.221Z,26.11
2022-07-28T14:21:14.776Z,26.89
2022-07-28T14:23:41.750Z,26.86
2022-07-28T14:26:34.511Z,26.60
2022-07-28T14:28:55.687Z,27.00
2022-07-28T14:31:22.447Z,27.95
2022-07-28T14:33:54.247Z,29.93
2022-07-28T14:36:21.872Z,31.06
2022-07-28T14:38:55.728Z,31.53
2022-07-28T14:41:22.568Z,32.42
2022-07-28T14:43:49.134Z,32.45
2022-07-28T14:46:20.879Z,33.61
2022-07-28T14:48:47.967Z,32.62
2022-07-28T14:51:14.672Z,33.29
2022-07-28T14:53:43.435Z,33.05
2022-07-28T14:56:17.940Z,33.40
2022-07-28T14:58:44.481Z,35.13
2022-07-28T15:01:11.066Z,34.89
2022-07-28T15:03:37.679Z,35.59
2022-07-28T15:06:09.989Z,35.25
2022-07-28T15:08:36.711Z,35.76
2022-07-28T15:11:03.346Z,34.58
2022-07-28T15:13:29.934Z,34.12
2022-07-28T15:15:57.083Z,34.87
2022-07-28T15:18:24.462Z,35.90
2022-07-28T15:20:51.268Z,36.75
2022-07-28T15:23:17.868Z,36.46
2022-07-28T15:25:46.435Z,36.04
2022-07-28T15:28:14.201Z,36.50
2022-07-28T15:30:51.433Z,36.61
2022-07-28T15:33:19.698Z,36.90
2022-07-28T15:35:58.763Z,36.17
2022-07-28T15:38:27.726Z,36.50
2022-07-28T15:40:55.046Z,37.16
2022-07-28T15:43:23.956Z,37.46
2022-07-28T15:45:51.073Z,37.03
2022-07-28T15:48:17.656Z,37.90
2022-07-28T15:50:48.418Z,38.62
2022-07-28T15:53:18.464Z,36.88
2022-07-28T15:55:50.558Z,38.26
2022-07-28T15:58:17.975Z,39.90
2022-07-28T16:00:46.008Z,39.35
2022-07-28T16:03:13.104Z,39.91
2022-07-28T16:05:40.053Z,39.48
2022-07-28T16:08:06.973Z,39.20
2022-07-28T16:10:33.799Z,39.59
2022-07-28T16:13:01.636Z,39.08
2022-07-28T16:15:28.289Z,39.22
2022-07-28T16:17:55.195Z,40.20
2022-07-28T16:20:22.113Z,40.42
2022-07-28T16:22:48.659Z,39.43
2022-07-28T16:25:20.412Z,40.52
2022-07-28T16:27:48.011Z,40.47
2022-07-28T16:30:15.537Z,40.44
2022-07-28T16:32:42.426Z,40.74
2022-07-28T16:35:09.649Z,41.03
2022-07-28T16:37:36.446Z,40.72
2022-07-28T16:40:04.338Z,40.92
2022-07-28T16:42:31.667Z,40.62
2022-07-28T16:44:58.296Z,41.95
2022-07-28T16:47:25.051Z,41.18
2022-07-28T16:49:51.619Z,40.78
2022-07-28T16:52:18.171Z,41.26
2022-07-28T16:54:45.742Z,40.93
2022-07-28T16:57:14.946Z,40.55
2022-07-28T16:59:48.883Z,41.03
2022-07-28T17:02:16.722Z,41.81
2022-07-28T17:04:43.333Z,42.09
2022-07-28T17:07:09.950Z,42.19
2022-07-28T17:09:36.488Z,42.47
2022-07-28T17:12:03.195Z,43.16
2022-07-28T17:14:29.731Z,42.91
2022-07-28T17:16:56.303Z,42.59
2022-07-28T17:19:22.917Z,42.50
2022-07-28T17:21:49.575Z,42.93
2022-07-28T17:24:16.502Z,43.19
2022-07-28T17:27:35.357Z,43.35
2022-07-28T17:29:30.046Z,43.17
2022-07-28T17:31:56.669Z,43.89
2022-07-28T17:34:24.015Z,43.62
2022-07-28T17:36:50.849Z,43.17
2022-07-28T17:39:17.371Z,43.68
2022-07-28T17:41:43.946Z,43.28
2022-07-28T17:44:10.522Z,44.44
2022-07-28T17:46:37.238Z,44.28
2022-07-28T17:49:05.679Z,44.69
2022-07-28T17:51:32.451Z,45.53
2022-07-28T17:53:59.179Z,44.75
2022-07-28T17:56:26.094Z,45.05
2022-07-28T17:58:52.830Z,45.24
2022-07-28T18:01:19.443Z,46.28
2022-07-28T18:03:59.661Z,46.82
2022-07-28T18:06:33.434Z,47.59
2022-07-28T18:09:07.017Z,48.33
2022-07-28T18:11:43.403Z,48.02
2022-07-28T18:14:26.653Z,49.46
2022-07-28T18:16:53.383Z,48.41
2022-07-28T18:19:19.973Z,48.69
2022-07-28T18:21:46.536Z,48.68
2022-07-28T18:24:13.503Z,49.18
2022-07-28T18:26:40.661Z,50.58
2022-07-28T18:29:07.306Z,50.77
2022-07-28T18:31:33.909Z,51.27
2022-07-28T18:34:00.460Z,51.84
2022-07-28T18:36:27.064Z,51.51
2022-07-28T18:38:53.591Z,49.84
2022-07-28T18:41:20.272Z,49.74
2022-07-28T18:43:46.831Z,51.16
2022-07-28T18:46:14.079Z,51.03
2022-07-28T18:48:40.712Z,52.44
2022-07-28T18:51:07.423Z,53.37
2022-07-28T18:53:34.450Z,52.93
2022-07-28T18:56:01.047Z,54.49
2022-07-28T18:58:27.579Z,51.76
2022-07-28T19:00:54.711Z,51.90
2022-07-28T19:03:21.369Z,52.76
2022-07-28T19:05:47.937Z,53.42
2022-07-28T19:08:14.524Z,54.25
2022-07-28T19:10:42.742Z,55.47
2022-07-28T19:13:12.814Z,55.13
2022-07-28T19:15:40.787Z,56.71
2022-07-28T19:18:11.328Z,56.23
2022-07-28T19:20:41.537Z,55.16
2022-07-28T19:23:08.101Z,55.89
2022-07-28T19:25:36.270Z,56.55
2022-07-28T19:28:03.828Z,57.50
2022-07-28T19:30:31.979Z,58.85
2022-07-28T19:32:59.034Z,59.45
2022-07-28T19:35:25.713Z,59.39
2022-07-28T19:37:52.290Z,59.37
2022-07-28T19:40:18.847Z,60.18
2022-07-28T19:42:47.061Z,61.68
2022-07-28T19:45:13.627Z,61.77
2022-07-28T19:47:40.174Z,60.16
2022-07-28T19:50:06.967Z,60.20
2022-07-28T19:52:34.392Z,59.02
2022-07-28T19:55:01.131Z,59.28
2022-07-28T19:57:30.834Z,58.36
2022-07-28T19:59:58.768Z,58.59
2022-07-28T20:02:25.345Z,58.95
2022-07-28T20:04:51.921Z,60.16
2022-07-28T20:07:18.697Z,61.18
2022-07-28T20:09:45.294Z,62.06
2022-07-28T20:12:11.902Z,62.75
2022-07-28T20:14:38.510Z,64.09
2022-07-28T20:17:05.238Z,64.79
2022-07-28T20:19:32.368Z,66.23
2022-07-28T20:21:58.951Z,64.90
2022-07-28T20:24:25.520Z,65.93
2022-07-28T20:26:52.110Z,66.04
2022-07-28T20:29:18.734Z,66.98
2022-07-28T20:31:45.264Z,67.60
2022-07-28T20:34:13.124Z,67.53
2022-07-28T20:36:40.072Z,68.39
2022-07-28T20:39:27.572Z,66.49
2022-07-28T20:41:53.228Z,67.65
2022-07-28T20:44:28.773Z,68.13
2022-07-28T20:46:58.624Z,69.17
2022-07-28T20:49:25.339Z,69.71
2022-07-28T20:51:51.987Z,69.04
2022-07-28T20:54:19.029Z,69.84
2022-07-28T20:56:45.610Z,71.39
2022-07-28T20:59:12.181Z,71.06
2022-07-28T21:01:39.173Z,70.89
2022-07-28T21:04:05.869Z,75.11
2022-07-28T21:06:32.571Z,77.30
2022-07-28T21:09:01.531Z,78.19
2022-07-28T21:11:28.761Z,77.21
2022-07-28T21:14:01.751Z,77.01
2022-07-28T21:16:28.411Z,76.53
2022-07-28T21:18:55.065Z,76.22
2022-07-28T21:21:22.117Z,77.23
2022-07-28T21:23:49.426Z,78.17
2022-07-28T21:26:16.601Z,78.15
2022-07-28T21:29:01.865Z,79.17
2022-07-28T21:31:28.509Z,78.70
2022-07-28T21:33:55.251Z,78.96
2022-07-28T21:36:21.793Z,78.83
2022-07-28T21:38:48.430Z,79.48
2022-07-28T21:41:15.023Z,79.56
2022-07-28T21:43:41.888Z,79.55
2022-07-28T21:46:09.671Z,79.76
2022-07-28T21:48:36.380Z,81.31
2022-07-28T21:51:03.006Z,81.62
2022-07-28T21:53:29.576Z,82.14
2022-07-28T21:55:57.128Z,83.09
2022-07-28T21:58:23.701Z,83.26
2022-07-28T22:00:50.280Z,83.34
2022-07-28T22:03:16.880Z,83.31
2022-07-28T22:05:43.581Z,83.82
2022-07-28T22:08:10.860Z,83.73
2022-07-28T22:10:37.471Z,84.22
2022-07-28T22:13:04.083Z,84.63
2022-07-28T22:15:30.654Z,85.43
2022-07-28T22:17:57.216Z,84.58
2022-07-28T22:20:23.737Z,86.09
2022-07-28T22:22:50.248Z,88.73
2022-07-28T22:25:16.840Z,90.97
2022-07-28T22:27:43.366Z,91.83
2022-07-28T22:30:10.201Z,92.40
2022-07-28T22:32:36.753Z,93.38
2022-07-28T22:35:03.484Z,93.10
2022-07-28T22:37:30.036Z,92.46
2022-07-28T22:39:56.588Z,91.32
2022-07-28T22:42:23.144Z,90.81
2022-07-28T22:44:49.713Z,91.25
2022-07-28T22:47:16.853Z,90.90
2022-07-28T22:49:43.419Z,92.11
2022-07-28T22:52:09.969Z,92.81
2022-07-28T22:54:40.179Z,93.14
2022-07-28T22:57:06.922Z,93.00
2022-07-28T22:59:38.565Z,93.07
2022-07-28T23:02:07.024Z,93.57
2022-07-28T23:04:33.624Z,92.53
2022-07-28T23:07:00.161Z,93.61
2022-07-28T23:09:27.208Z,93.57
2022-07-28T23:11:55.718Z,93.38
2022-07-28T23:14:22.936Z,93.29
2022-07-28T23:16:49.514Z,91.56
2022-07-28T23:19:16.470Z,92.54
2022-07-28T23:21:43.051Z,92.35
2022-07-28T23:24:09.604Z,92.02
2022-07-28T23:26:36.167Z,91.17
2022-07-28T23:29:02.711Z,90.55
2022-07-28T23:31:29.409Z,91.66
2022-07-28T23:33:57.663Z,92.24
2022-07-28T23:36:27.552Z,92.67
2022-07-28T23:38:58.892Z,94.04
2022-07-28T23:41:26.455Z,92.41
2022-07-28T23:43:53.479Z,89.19
2022-07-28T23:46:20.128Z,89.06
2022-07-28T23:48:46.859Z,92.20
2022-07-28T23:51:16.251Z,99.36
2022-07-28T23:53:42.894Z,100.00
2022-07-28T23:56:09.899Z,100.00
2022-07-28T23:58:36.448Z,100.00
